Dodge City, KS

02:43 AM CDT am 25. Oktober 2014 (GMT -0500)
Dodge City Regional | Change Station
CLOSE
Current Station
Flughafen
Location: Dodge City,
Höhe: 2592 ft
Wetterstationen in der Umgebung

Höhe 2592 ft 37.76 °N, 99.97 °W | Updated 51 minutes ago

Clear
Heiter
58 °F
gefühlte 58 °F
N
7
Wind Wechselnd Wind aus Süd-Südwest

Heute
Max. -- | schwach -- °F
--% Regenrisiko
Gestern
Max. -- | schwach -- °F
Precip. -- inch
7:58 AM 6:49 PM
Neumond, 2% visible
Druck 30.00 inch
Sichtweite 10.0 Meilen
Wolken Heiter
Taupunkt 48 °F
Feuchtigkeit 70%
Regen 0.00 inch
Schneehöhe Nicht verfügbar..
UV 0 von 12
Pollen 3.30 von 12
Luftqualität Nicht verfügbar..
Flu Activity No Activity
METAR KDDC 250652Z AUTO 20006KT 10SM CLR 14/09 A3007 RMK AO2 SLP157 T01440089

More Conditions Fewer Conditions

Druck 30.00 inch
Sichtweite 10.0 Meilen
Wolken Heiter
Taupunkt 48 °F
Feuchtigkeit 70%
Regen 0.00 inch
Schneehöhe Nicht verfügbar..
UV 0 von 12
Pollen 3.30 von 12
Luftqualität Nicht verfügbar..
Flu Activity No Activity
METAR KDDC 250652Z AUTO 20006KT 10SM CLR 14/09 A3007 RMK AO2 SLP157 T01440089

More Conditions Fewer Conditions

10-Day Weather Forecast

Almanac

Astronomie

Oct. 25, 2014 Aufgang Untergang
Genaue Zeit 07:58 CDT 18:49 CDT
Bürgerliche Dämmerung 07:31 CDT 19:16 CDT
Nautische Dämmerung 07:00 CDT 19:46 CDT
Astronomische Dämmerung 06:30 CDT 20:17 CDT
Mond 09:37 CDT 20:15 CDT
Länge des sichtbaren Lichts 11h 44m
Tageslänge
10h 51m
Tomorrow will be 2m 13s shorter.
Neumond, 2% of the Moon is Illuminated
Heute
Neumond
Okt 30
Erstes Viertel
Nov 6
Vollmond
Nov 14
Letztes Viertel
Nov 22
Neu

Heutige Rekorde

State Highs State Lows

Community

WunderPhotos

Upload Photos

1,764,791 Fotos hochgeladen!

Nearby

Schneehöhe

Station Depth Höhe
Kein Neuschnee gemeldet.

Erdbebenaktivität

Stadt Distance Mag. Time & Date
Mooreland, Oklahoma 102 Meilen 2.5 14:43 CDT
2014-10-24
Mooreland, Oklahoma 103 Meilen 2.5 12:39 CDT
2014-10-24
Mooreland, Oklahoma 105 Meilen 2.8 17:31 CDT
2014-10-22
Mooreland, Oklahoma 102 Meilen 2.5 11:19 CDT
2014-10-22
Minimum magnitude displayed is 2.5.

küstennahe Wassertemperaturen

Ort Temperatur
Kein Stationsbericht

Wetterstationen in der Umgebung